createdAt,value
2023-11-12T14:16:48.044Z,139.30
2023-11-12T14:19:18.103Z,56.60
2023-11-12T14:21:46.703Z,31.13
2023-11-12T14:25:12.325Z,6.80
2023-11-12T14:27:42.572Z,9.55
2023-11-12T14:30:14.744Z,11.55
2023-11-12T14:32:42.506Z,8.55
2023-11-12T14:35:10.860Z,9.73
2023-11-12T14:37:40.308Z,12.88
2023-11-12T14:40:13.304Z,9.73
2023-11-12T14:42:43.704Z,10.10
2023-11-12T14:45:24.895Z,10.35
2023-11-12T14:47:58.355Z,10.18
2023-11-12T14:50:26.886Z,10.65
2023-11-12T14:52:56.717Z,9.73
2023-11-12T14:55:26.952Z,12.52
2023-11-12T14:57:56.743Z,11.27
2023-11-12T15:00:34.271Z,13.38
2023-11-12T15:03:07.644Z,11.50
2023-11-12T15:05:36.904Z,10.38
2023-11-12T15:08:06.794Z,13.70
2023-11-12T15:10:36.943Z,12.10
2023-11-12T15:13:06.980Z,12.30
2023-11-12T15:15:37.960Z,14.93
2023-11-12T15:18:08.092Z,10.40
2023-11-12T15:20:38.002Z,11.45
2023-11-12T15:23:07.988Z,10.82
2023-11-12T15:25:39.374Z,13.18
2023-11-12T15:28:09.538Z,13.57
2023-11-12T15:30:39.597Z,11.75
2023-11-12T15:33:10.364Z,13.80
2023-11-12T15:35:40.292Z,15.13
2023-11-12T15:38:10.718Z,14.60
2023-11-12T15:40:40.789Z,14.23
2023-11-12T15:43:10.923Z,17.80
2023-11-12T15:45:40.838Z,16.08
2023-11-12T15:48:10.875Z,20.58
2023-11-12T15:50:44.608Z,13.98
2023-11-12T15:53:12.945Z,17.80
2023-11-12T15:55:41.209Z,14.77
2023-11-12T15:58:12.586Z,15.40
2023-11-12T16:00:42.959Z,20.90
2023-11-12T16:03:18.338Z,14.18
2023-11-12T16:05:49.527Z,14.88
2023-11-12T16:08:19.505Z,19.33
2023-11-12T16:10:49.365Z,18.77
2023-11-12T16:13:19.330Z,14.82
2023-11-12T16:15:49.318Z,14.80
2023-11-12T16:18:19.278Z,13.65
2023-11-12T16:20:49.179Z,15.90
2023-11-12T16:23:21.405Z,15.35
2023-11-12T16:25:51.675Z,13.68
2023-11-12T16:28:23.092Z,13.25
2023-11-12T16:30:55.363Z,13.75
2023-11-12T16:33:26.609Z,14.55
2023-11-12T16:35:57.247Z,14.90
2023-11-12T16:38:27.291Z,13.57
2023-11-12T16:40:57.993Z,17.67
2023-11-12T16:43:27.905Z,12.85
2023-11-12T16:45:59.500Z,13.43
2023-11-12T16:48:28.530Z,14.52
2023-11-12T16:50:58.432Z,17.52
2023-11-12T16:53:28.209Z,16.42
2023-11-12T16:55:58.856Z,14.10
2023-11-12T16:58:28.871Z,16.45
2023-11-12T17:00:58.737Z,18.20
2023-11-12T17:03:28.817Z,14.70
2023-11-12T17:05:57.155Z,15.32
2023-11-12T17:08:25.514Z,16.80
2023-11-12T17:10:54.125Z,17.83
2023-11-12T17:13:24.057Z,16.05
2023-11-12T17:15:53.938Z,17.00
2023-11-12T17:18:24.625Z,17.35
2023-11-12T17:20:53.718Z,16.23
2023-11-12T17:23:23.174Z,16.05
2023-11-12T17:25:50.621Z,18.73
2023-11-12T17:28:19.310Z,16.38
2023-11-12T17:30:47.517Z,17.80
2023-11-12T17:33:15.923Z,17.27
2023-11-12T17:35:44.522Z,16.05
2023-11-12T17:38:12.867Z,18.38
2023-11-12T17:40:41.398Z,24.05
2023-11-12T17:43:10.135Z,19.70
2023-11-12T17:45:38.221Z,17.77
2023-11-12T17:48:06.878Z,19.98
2023-11-12T17:50:35.309Z,17.83
2023-11-12T17:53:05.248Z,16.10
2023-11-12T17:55:35.133Z,17.40
2023-11-12T17:58:06.783Z,20.08
2023-11-12T18:00:37.531Z,15.95
2023-11-12T18:03:07.764Z,16.45
2023-11-12T18:05:37.647Z,15.52
2023-11-12T18:08:08.827Z,17.27
2023-11-12T18:10:39.885Z,17.00
2023-11-12T18:13:09.087Z,21.45
2023-11-12T18:15:38.977Z,23.00
2023-11-12T18:18:07.432Z,16.13
2023-11-12T18:20:35.841Z,17.13
2023-11-12T18:23:04.810Z,16.80
2023-11-12T18:25:34.647Z,15.80
2023-11-12T18:28:11.753Z,19.10
2023-11-12T18:30:48.602Z,14.40
2023-11-12T18:33:20.121Z,16.30
2023-11-12T18:35:50.305Z,19.45
2023-11-12T18:38:20.356Z,16.75
2023-11-12T18:40:50.484Z,15.98
2023-11-12T18:43:20.490Z,15.73
2023-11-12T18:45:54.709Z,15.25
2023-11-12T18:48:25.511Z,16.42
2023-11-12T18:50:55.415Z,14.10
2023-11-12T18:53:25.358Z,16.85
2023-11-12T18:55:55.429Z,14.60
2023-11-12T18:58:25.509Z,17.70
2023-11-12T19:00:55.407Z,15.27
2023-11-12T19:03:25.439Z,15.88
2023-11-12T19:05:55.502Z,17.90
2023-11-12T19:08:25.518Z,13.43
2023-11-12T19:10:55.496Z,14.85
2023-11-12T19:13:25.701Z,13.45
2023-11-12T19:15:57.597Z,14.32
2023-11-12T19:18:27.247Z,19.45
2023-11-12T19:20:55.561Z,15.60
2023-11-12T19:23:25.800Z,14.95
2023-11-12T19:25:55.922Z,13.25
2023-11-12T19:28:25.968Z,15.57
2023-11-12T19:30:56.093Z,16.17
2023-11-12T19:33:26.152Z,14.73
2023-11-12T19:35:56.185Z,13.30
2023-11-12T19:38:28.171Z,15.95
2023-11-12T19:40:59.518Z,18.25
2023-11-12T19:43:29.665Z,15.60
2023-11-12T19:45:59.808Z,14.88
2023-11-12T19:48:29.970Z,17.10
2023-11-12T19:51:01.123Z,15.25
2023-11-12T19:53:31.212Z,22.00
2023-11-12T19:56:01.398Z,20.30
2023-11-12T19:58:31.598Z,14.88
2023-11-12T20:01:02.025Z,12.90
2023-11-12T20:03:32.693Z,16.58
2023-11-12T20:06:03.038Z,12.35
2023-11-12T20:08:33.717Z,13.55
2023-11-12T20:11:04.196Z,11.88
2023-11-12T20:13:34.784Z,12.98
2023-11-12T20:16:05.648Z,14.07
2023-11-12T20:18:44.709Z,22.13
2023-11-12T20:21:15.450Z,36.70
2023-11-12T20:23:53.791Z,38.60
2023-11-12T20:26:24.198Z,21.10
2023-11-12T20:28:54.434Z,18.27
2023-11-12T20:31:25.732Z,18.40
2023-11-12T20:33:56.530Z,19.33
2023-11-12T20:36:26.542Z,13.63
2023-11-12T20:38:56.560Z,13.70
2023-11-12T20:41:27.802Z,14.15
2023-11-12T20:43:58.851Z,15.07
2023-11-12T20:46:28.990Z,12.75
2023-11-12T20:49:00.986Z,13.77
2023-11-12T20:51:30.528Z,15.10
2023-11-12T20:53:58.976Z,15.98
2023-11-12T20:56:27.305Z,11.75
2023-11-12T20:58:55.761Z,15.60
2023-11-12T21:01:25.846Z,17.20
2023-11-12T21:03:56.007Z,12.30
2023-11-12T21:06:27.138Z,15.40
2023-11-12T21:08:57.810Z,12.23
2023-11-12T21:11:30.090Z,17.77
2023-11-12T21:14:01.520Z,15.35
2023-11-12T21:16:31.648Z,15.07
2023-11-12T21:19:03.595Z,11.50
2023-11-12T21:21:34.703Z,13.45
2023-11-12T21:24:06.456Z,13.77
2023-11-12T21:26:36.896Z,14.02
2023-11-12T21:29:10.403Z,12.98
2023-11-12T21:31:46.818Z,14.15
2023-11-12T21:34:16.924Z,20.25
2023-11-12T21:36:47.661Z,13.80
2023-11-12T21:39:18.361Z,13.38
2023-11-12T21:41:46.586Z,19.23
2023-11-12T21:44:14.647Z,15.20
2023-11-12T21:46:43.893Z,14.05
2023-11-12T21:49:11.833Z,13.40
2023-11-12T21:51:40.365Z,14.48
2023-11-12T21:54:08.209Z,12.35
2023-11-12T21:56:37.888Z,16.85
2023-11-12T21:59:08.085Z,18.38
2023-11-12T22:01:38.326Z,14.85
2023-11-12T22:04:08.416Z,14.85
2023-11-12T22:06:38.461Z,13.20
2023-11-12T22:09:14.933Z,12.73
2023-11-12T22:11:46.423Z,16.00
2023-11-12T22:14:16.474Z,15.52
2023-11-12T22:16:47.004Z,14.18
2023-11-12T22:19:17.095Z,15.77
2023-11-12T22:21:47.684Z,16.15
2023-11-12T22:24:17.767Z,14.65
2023-11-12T22:26:47.805Z,13.15
2023-11-12T22:29:19.107Z,15.38
2023-11-12T22:31:49.329Z,14.40
2023-11-12T22:34:21.654Z,16.27
2023-11-12T22:36:51.715Z,14.07
2023-11-12T22:39:21.731Z,14.38
2023-11-12T22:41:51.816Z,15.95
2023-11-12T22:44:21.907Z,13.75
2023-11-12T22:46:51.911Z,16.10
2023-11-12T22:49:22.053Z,14.57
2023-11-12T22:51:52.110Z,13.68
2023-11-12T22:54:22.267Z,11.85
2023-11-12T22:56:54.397Z,12.95
2023-11-12T22:59:25.685Z,11.23
2023-11-12T23:01:57.497Z,12.48
2023-11-12T23:04:27.677Z,9.13
2023-11-12T23:06:57.763Z,11.00
2023-11-12T23:09:30.034Z,11.05
2023-11-12T23:12:00.327Z,10.27
2023-11-12T23:14:31.027Z,13.52
2023-11-12T23:17:00.976Z,15.98
2023-11-12T23:19:31.041Z,12.57
2023-11-12T23:22:05.051Z,12.50
2023-11-12T23:24:34.115Z,9.98
2023-11-12T23:27:04.489Z,11.57
2023-11-12T23:29:36.119Z,10.63
2023-11-12T23:32:09.789Z,10.93
2023-11-12T23:34:38.731Z,10.57
2023-11-12T23:37:07.972Z,12.75
2023-11-12T23:39:38.587Z,14.45
2023-11-12T23:42:06.225Z,13.70
2023-11-12T23:44:34.160Z,9.02
2023-11-12T23:47:02.803Z,13.63
2023-11-12T23:49:30.970Z,11.90
2023-11-12T23:51:59.567Z,12.48
2023-11-12T23:54:27.927Z,11.85
2023-11-12T23:56:56.240Z,11.25
2023-11-12T23:59:24.938Z,11.55
